sensor_id;sensor_type;location;lat;lon;timestamp;pressure;altitude;pressure_sealevel;temperature;humidity
73692;BME280;61996;49.910;35.562;2022-09-13T00:02:26;98290.44;;;18.41;55.31
73692;BME280;61996;49.910;35.562;2022-09-13T00:05:29;98297.09;;;18.45;55.04
73692;BME280;61996;49.910;35.562;2022-09-13T00:08:32;98299.25;;;18.33;55.56
73692;BME280;61996;49.910;35.562;2022-09-13T00:11:35;98301.44;;;18.30;55.46
73692;BME280;61996;49.910;35.562;2022-09-13T00:14:39;98304.75;;;18.32;55.56
73692;BME280;61996;49.910;35.562;2022-09-13T00:17:42;98303.28;;;18.29;55.45
73692;BME280;61996;49.910;35.562;2022-09-13T00:20:44;98295.59;;;18.34;55.52
73692;BME280;61996;49.910;35.562;2022-09-13T00:23:48;98294.09;;;18.40;55.01
73692;BME280;61996;49.910;35.562;2022-09-13T00:26:52;98293.75;;;18.35;55.43
73692;BME280;61996;49.910;35.562;2022-09-13T00:29:56;98291.44;;;18.32;55.28
73692;BME280;61996;49.910;35.562;2022-09-13T00:32:58;98285.44;;;18.22;55.35
73692;BME280;61996;49.910;35.562;2022-09-13T00:36:05;98273.81;;;18.31;55.15
73692;BME280;61996;49.910;35.562;2022-09-13T00:39:08;98280.81;;;18.16;55.56
73692;BME280;61996;49.910;35.562;2022-09-13T00:42:11;98284.97;;;18.10;55.63
73692;BME280;61996;49.910;35.562;2022-09-13T00:45:16;98277.97;;;18.33;55.22
73692;BME280;61996;49.910;35.562;2022-09-13T00:48:20;98273.81;;;18.31;54.93
73692;BME280;61996;49.910;35.562;2022-09-13T00:51:24;98270.84;;;18.18;55.27
73692;BME280;61996;49.910;35.562;2022-09-13T00:54:28;98264.03;;;18.15;55.37
73692;BME280;61996;49.910;35.562;2022-09-13T00:57:33;98263.16;;;18.15;55.51
73692;BME280;61996;49.910;35.562;2022-09-13T01:00:38;98255.69;;;18.18;55.47
73692;BME280;61996;49.910;35.562;2022-09-13T01:03:41;98260.84;;;18.12;55.37
73692;BME280;61996;49.910;35.562;2022-09-13T01:06:45;98264.16;;;18.22;55.10
73692;BME280;61996;49.910;35.562;2022-09-13T01:09:49;98259.69;;;18.14;54.86
73692;BME280;61996;49.910;35.562;2022-09-13T01:12:53;98262.88;;;18.10;55.17
73692;BME280;61996;49.910;35.562;2022-09-13T01:15:59;98258.53;;;18.08;55.38
73692;BME280;61996;49.910;35.562;2022-09-13T01:19:02;98244.91;;;18.03;55.10
73692;BME280;61996;49.910;35.562;2022-09-13T01:25:43;98261.00;;;17.94;55.75
73692;BME280;61996;49.910;35.562;2022-09-13T01:29:08;98249.56;;;18.10;55.30
73692;BME280;61996;49.910;35.562;2022-09-13T01:32:19;98243.41;;;17.93;55.54
73692;BME280;61996;49.910;35.562;2022-09-13T01:35:27;98249.22;;;18.13;55.10
73692;BME280;61996;49.910;35.562;2022-09-13T01:38:41;98245.75;;;17.88;55.44
73692;BME280;61996;49.910;35.562;2022-09-13T01:41:52;98239.25;;;17.90;55.27
73692;BME280;61996;49.910;35.562;2022-09-13T01:45:01;98240.59;;;17.94;55.21
73692;BME280;61996;49.910;35.562;2022-09-13T01:48:09;98242.06;;;17.97;55.20
73692;BME280;61996;49.910;35.562;2022-09-13T01:51:17;98239.59;;;18.03;55.36
73692;BME280;61996;49.910;35.562;2022-09-13T01:54:24;98246.22;;;17.99;55.19
73692;BME280;61996;49.910;35.562;2022-09-13T01:57:33;98232.91;;;18.07;55.23
73692;BME280;61996;49.910;35.562;2022-09-13T02:00:39;98236.75;;;17.97;55.18
73692;BME280;61996;49.910;35.562;2022-09-13T02:03:44;98231.78;;;18.02;55.35
73692;BME280;61996;49.910;35.562;2022-09-13T02:06:51;98227.94;;;17.96;55.42
73692;BME280;61996;49.910;35.562;2022-09-13T02:09:57;98223.94;;;17.92;55.50
73692;BME280;61996;49.910;35.562;2022-09-13T02:13:01;98224.78;;;18.01;55.38
73692;BME280;61996;49.910;35.562;2022-09-13T02:16:07;98226.28;;;17.95;55.76
73692;BME280;61996;49.910;35.562;2022-09-13T02:19:14;98215.97;;;17.92;55.82
73692;BME280;61996;49.910;35.562;2022-09-13T02:22:21;98225.28;;;17.88;55.62
73692;BME280;61996;49.910;35.562;2022-09-13T02:25:25;98207.47;;;18.13;54.81
73692;BME280;61996;49.910;35.562;2022-09-13T02:28:31;98208.66;;;18.11;55.45
73692;BME280;61996;49.910;35.562;2022-09-13T02:31:35;98206.00;;;17.86;55.50
73692;BME280;61996;49.910;35.562;2022-09-13T02:34:42;98203.00;;;17.97;55.43
73692;BME280;61996;49.910;35.562;2022-09-13T02:37:51;98207.00;;;17.93;55.32
73692;BME280;61996;49.910;35.562;2022-09-13T02:40:58;98191.22;;;18.08;55.40
73692;BME280;61996;49.910;35.562;2022-09-13T02:44:03;98189.72;;;17.89;55.56
73692;BME280;61996;49.910;35.562;2022-09-13T02:47:17;98192.88;;;17.85;55.62
73692;BME280;61996;49.910;35.562;2022-09-13T02:50:29;98187.88;;;17.90;55.63
73692;BME280;61996;49.910;35.562;2022-09-13T02:53:36;98185.03;;;17.99;54.90
73692;BME280;61996;49.910;35.562;2022-09-13T02:56:42;98179.72;;;17.99;55.06
73692;BME280;61996;49.910;35.562;2022-09-13T02:59:47;98184.53;;;18.12;54.89
73692;BME280;61996;49.910;35.562;2022-09-13T03:02:50;98191.19;;;18.00;55.05
73692;BME280;61996;49.910;35.562;2022-09-13T03:05:56;98184.06;;;17.92;55.18
73692;BME280;61996;49.910;35.562;2022-09-13T03:08:59;98186.72;;;17.84;55.18
73692;BME280;61996;49.910;35.562;2022-09-13T03:12:09;98178.91;;;17.99;54.89
73692;BME280;61996;49.910;35.562;2022-09-13T03:15:19;98165.44;;;17.84;55.24
73692;BME280;61996;49.910;35.562;2022-09-13T03:18:29;98162.97;;;17.83;55.54
73692;BME280;61996;49.910;35.562;2022-09-13T03:21:44;98159.31;;;17.84;55.35
73692;BME280;61996;49.910;35.562;2022-09-13T03:24:51;98162.16;;;17.74;55.68
73692;BME280;61996;49.910;35.562;2022-09-13T03:28:05;98165.25;;;17.94;55.34
73692;BME280;61996;49.910;35.562;2022-09-13T03:31:13;98158.81;;;17.72;55.61
73692;BME280;61996;49.910;35.562;2022-09-13T03:34:24;98154.50;;;17.87;55.37
73692;BME280;61996;49.910;35.562;2022-09-13T03:37:33;98149.66;;;17.91;55.15
73692;BME280;61996;49.910;35.562;2022-09-13T03:40:39;98135.88;;;17.87;55.04
73692;BME280;61996;49.910;35.562;2022-09-13T03:43:44;98132.56;;;17.77;55.28
73692;BME280;61996;49.910;35.562;2022-09-13T03:46:50;98129.34;;;17.98;54.80
73692;BME280;61996;49.910;35.562;2022-09-13T03:49:54;98126.66;;;18.14;54.48
73692;BME280;61996;49.910;35.562;2022-09-13T03:53:00;98129.81;;;18.18;54.41
73692;BME280;61996;49.910;35.562;2022-09-13T03:56:10;98135.53;;;17.90;54.83
73692;BME280;61996;49.910;35.562;2022-09-13T03:59:13;98126.53;;;17.99;54.62
73692;BME280;61996;49.910;35.562;2022-09-13T04:02:16;98121.56;;;17.96;54.70
73692;BME280;61996;49.910;35.562;2022-09-13T04:05:19;98130.69;;;18.02;54.38
73692;BME280;61996;49.910;35.562;2022-09-13T04:08:23;98136.72;;;17.88;54.63
73692;BME280;61996;49.910;35.562;2022-09-13T04:11:26;98139.19;;;17.89;54.59
73692;BME280;61996;49.910;35.562;2022-09-13T04:14:32;98143.47;;;18.06;54.20
73692;BME280;61996;49.910;35.562;2022-09-13T04:17:35;98149.81;;;17.97;54.32
73692;BME280;61996;49.910;35.562;2022-09-13T04:20:37;98144.19;;;17.84;54.92
73692;BME280;61996;49.910;35.562;2022-09-13T04:23:41;98141.03;;;17.80;54.96
73692;BME280;61996;49.910;35.562;2022-09-13T04:26:47;98133.19;;;17.79;54.75
73692;BME280;61996;49.910;35.562;2022-09-13T04:29:50;98139.53;;;17.94;54.56
73692;BME280;61996;49.910;35.562;2022-09-13T04:32:53;98143.34;;;17.84;54.57
73692;BME280;61996;49.910;35.562;2022-09-13T04:35:58;98150.66;;;17.90;54.06
73692;BME280;61996;49.910;35.562;2022-09-13T04:39:03;98139.53;;;17.94;53.86
73692;BME280;61996;49.910;35.562;2022-09-13T04:42:05;98137.34;;;17.90;54.19
73692;BME280;61996;49.910;35.562;2022-09-13T04:45:09;98132.19;;;17.80;54.45
73692;BME280;61996;49.910;35.562;2022-09-13T04:48:11;98138.81;;;18.08;53.49
73692;BME280;61996;49.910;35.562;2022-09-13T04:51:14;98138.34;;;17.97;54.18
73692;BME280;61996;49.910;35.562;2022-09-13T04:54:19;98136.03;;;17.86;54.45
73692;BME280;61996;49.910;35.562;2022-09-13T04:57:22;98134.88;;;17.88;54.08
73692;BME280;61996;49.910;35.562;2022-09-13T05:00:25;98131.88;;;17.83;54.26
73692;BME280;61996;49.910;35.562;2022-09-13T05:03:28;98130.22;;;17.82;54.54
73692;BME280;61996;49.910;35.562;2022-09-13T05:06:31;98125.75;;;17.83;54.36
73692;BME280;61996;49.910;35.562;2022-09-13T05:09:35;98128.22;;;17.84;54.39
73692;BME280;61996;49.910;35.562;2022-09-13T05:12:37;98133.06;;;17.80;54.56
73692;BME280;61996;49.910;35.562;2022-09-13T05:15:40;98136.84;;;17.62;54.92
73692;BME280;61996;49.910;35.562;2022-09-13T05:18:43;98133.38;;;17.77;54.67
73692;BME280;61996;49.910;35.562;2022-09-13T05:21:46;98128.22;;;17.68;54.83
73692;BME280;61996;49.910;35.562;2022-09-13T05:24:50;98130.69;;;17.69;54.83
73692;BME280;61996;49.910;35.562;2022-09-13T05:27:52;98138.53;;;17.71;54.89
73692;BME280;61996;49.910;35.562;2022-09-13T05:30:55;98130.91;;;17.76;54.48
73692;BME280;61996;49.910;35.562;2022-09-13T05:33:59;98123.75;;;17.76;54.62
73692;BME280;61996;49.910;35.562;2022-09-13T05:37:02;98131.72;;;17.60;54.77
73692;BME280;61996;49.910;35.562;2022-09-13T05:40:07;98126.75;;;17.82;54.56
73692;BME280;61996;49.910;35.562;2022-09-13T05:43:12;98139.47;;;18.11;53.55
73692;BME280;61996;49.910;35.562;2022-09-13T05:46:16;98143.31;;;18.00;54.02
73692;BME280;61996;49.910;35.562;2022-09-13T05:49:20;98148.16;;;17.80;54.43
73692;BME280;61996;49.910;35.562;2022-09-13T05:52:22;98146.66;;;17.86;54.06
73692;BME280;61996;49.910;35.562;2022-09-13T05:55:26;98151.16;;;17.77;54.55
73692;BME280;61996;49.910;35.562;2022-09-13T05:58:29;98159.13;;;17.77;54.30
73692;BME280;61996;49.910;35.562;2022-09-13T06:01:32;98172.91;;;18.05;54.33
73692;BME280;61996;49.910;35.562;2022-09-13T06:04:35;98164.22;;;18.19;53.61
73692;BME280;61996;49.910;35.562;2022-09-13T06:07:38;98168.59;;;18.04;54.14
73692;BME280;61996;49.910;35.562;2022-09-13T06:10:42;98182.22;;;18.09;53.96
73692;BME280;61996;49.910;35.562;2022-09-13T06:13:45;98177.88;;;18.24;53.96
73692;BME280;61996;49.910;35.562;2022-09-13T06:16:48;98170.22;;;18.13;53.83
73692;BME280;61996;49.910;35.562;2022-09-13T06:19:50;98169.06;;;18.16;53.90
73692;BME280;61996;49.910;35.562;2022-09-13T06:22:53;98171.44;;;17.94;54.18
73692;BME280;61996;49.910;35.562;2022-09-13T06:26:01;98180.97;;;18.44;53.43
73692;BME280;61996;49.910;35.562;2022-09-13T06:29:04;98181.00;;;18.28;53.57
73692;BME280;61996;49.910;35.562;2022-09-13T06:32:07;98175.34;;;18.31;54.26
73692;BME280;61996;49.910;35.562;2022-09-13T06:35:10;98176.63;;;18.90;54.14
73692;BME280;61996;49.910;35.562;2022-09-13T06:38:12;98172.59;;;19.26;54.47
73692;BME280;61996;49.910;35.562;2022-09-13T06:41:17;98171.09;;;19.54;53.84
73692;BME280;61996;49.910;35.562;2022-09-13T06:44:20;98167.56;;;19.62;53.64
73692;BME280;61996;49.910;35.562;2022-09-13T06:47:23;98178.97;;;19.70;53.23
73692;BME280;61996;49.910;35.562;2022-09-13T06:50:27;98171.63;;;19.73;53.15
73692;BME280;61996;49.910;35.562;2022-09-13T06:53:29;98185.06;;;19.79;52.68
73692;BME280;61996;49.910;35.562;2022-09-13T06:56:36;98183.59;;;19.77;52.17
73692;BME280;61996;49.910;35.562;2022-09-13T06:59:39;98187.84;;;19.86;51.49
73692;BME280;61996;49.910;35.562;2022-09-13T07:02:42;98185.56;;;19.83;51.74
73692;BME280;61996;49.910;35.562;2022-09-13T07:05:45;98185.94;;;19.94;51.40
73692;BME280;61996;49.910;35.562;2022-09-13T07:08:48;98173.31;;;19.88;51.51
73692;BME280;61996;49.910;35.562;2022-09-13T07:11:53;98180.69;;;19.86;52.14
73692;BME280;61996;49.910;35.562;2022-09-13T07:14:56;98172.88;;;19.99;51.58
73692;BME280;61996;49.910;35.562;2022-09-13T07:17:59;98172.34;;;20.04;51.89
73692;BME280;61996;49.910;35.562;2022-09-13T07:21:03;98169.84;;;20.03;52.60
73692;BME280;61996;49.910;35.562;2022-09-13T07:24:06;98169.94;;;20.09;52.14
73692;BME280;61996;49.910;35.562;2022-09-13T07:27:10;98173.09;;;20.13;51.85
73692;BME280;61996;49.910;35.562;2022-09-13T07:30:15;98173.72;;;20.15;51.59
73692;BME280;61996;49.910;35.562;2022-09-13T07:33:18;98172.19;;;20.20;51.63
73692;BME280;61996;49.910;35.562;2022-09-13T07:36:21;98167.66;;;20.21;51.24
73692;BME280;61996;49.910;35.562;2022-09-13T07:39:24;98160.31;;;20.23;50.51
73692;BME280;61996;49.910;35.562;2022-09-13T07:42:28;98159.13;;;20.25;50.23
73692;BME280;61996;49.910;35.562;2022-09-13T07:45:31;98162.09;;;20.31;49.99
73692;BME280;61996;49.910;35.562;2022-09-13T07:48:36;98161.41;;;20.29;49.75
73692;BME280;61996;49.910;35.562;2022-09-13T07:51:40;98162.09;;;20.31;49.64
73692;BME280;61996;49.910;35.562;2022-09-13T07:54:44;98160.88;;;20.33;49.69
73692;BME280;61996;49.910;35.562;2022-09-13T07:57:49;98155.63;;;20.25;49.50
73692;BME280;61996;49.910;35.562;2022-09-13T08:00:52;98155.53;;;20.18;49.70
73692;BME280;61996;49.910;35.562;2022-09-13T08:03:55;98155.16;;;20.21;50.14
73692;BME280;61996;49.910;35.562;2022-09-13T08:06:59;98145.41;;;20.29;49.90
73692;BME280;61996;49.910;35.562;2022-09-13T08:10:03;98149.81;;;20.36;49.54
73692;BME280;61996;49.910;35.562;2022-09-13T08:13:08;98145.91;;;20.47;49.26
73692;BME280;61996;49.910;35.562;2022-09-13T08:16:11;98140.16;;;20.50;48.98
73692;BME280;61996;49.910;35.562;2022-09-13T08:19:15;98144.06;;;20.47;49.01
73692;BME280;61996;49.910;35.562;2022-09-13T08:22:18;98136.47;;;20.51;49.12
73692;BME280;61996;49.910;35.562;2022-09-13T08:25:21;98144.50;;;20.51;48.99
73692;BME280;61996;49.910;35.562;2022-09-13T08:28:25;98145.25;;;20.45;48.79
73692;BME280;61996;49.910;35.562;2022-09-13T08:31:28;98138.91;;;20.46;48.51
73692;BME280;61996;49.910;35.562;2022-09-13T08:34:31;98143.41;;;20.45;48.51
73692;BME280;61996;49.910;35.562;2022-09-13T08:37:34;98148.25;;;20.42;48.33
73692;BME280;61996;49.910;35.562;2022-09-13T08:40:38;98145.13;;;20.38;48.50
73692;BME280;61996;49.910;35.562;2022-09-13T08:43:44;98148.06;;;20.43;48.51
73692;BME280;61996;49.910;35.562;2022-09-13T08:46:49;98145.72;;;20.48;48.76
73692;BME280;61996;49.910;35.562;2022-09-13T08:49:56;98142.00;;;20.49;48.46
73692;BME280;61996;49.910;35.562;2022-09-13T08:53:03;98148.97;;;20.36;48.76
73692;BME280;61996;49.910;35.562;2022-09-13T08:56:08;98148.25;;;20.42;48.25
73692;BME280;61996;49.910;35.562;2022-09-13T08:59:22;98148.56;;;20.47;48.05
73692;BME280;61996;49.910;35.562;2022-09-13T09:02:35;98140.44;;;20.40;48.18
73692;BME280;61996;49.910;35.562;2022-09-13T09:05:43;98143.94;;;20.56;47.67
73692;BME280;61996;49.910;35.562;2022-09-13T09:08:49;98148.06;;;20.58;47.55
73692;BME280;61996;49.910;35.562;2022-09-13T09:11:55;98141.38;;;20.62;47.46
73692;BME280;61996;49.910;35.562;2022-09-13T09:15:04;98142.56;;;20.60;47.30
73692;BME280;61996;49.910;35.562;2022-09-13T09:18:12;98141.38;;;20.62;47.08
73692;BME280;61996;49.910;35.562;2022-09-13T09:21:16;98140.06;;;20.58;47.14
73692;BME280;61996;49.910;35.562;2022-09-13T09:24:20;98144.22;;;20.61;47.12
73692;BME280;61996;49.910;35.562;2022-09-13T09:27:25;98139.06;;;20.59;47.30
73692;BME280;61996;49.910;35.562;2022-09-13T09:30:38;98137.22;;;20.60;47.11
73692;BME280;61996;49.910;35.562;2022-09-13T09:33:50;98141.75;;;20.59;46.90
73692;BME280;61996;49.910;35.562;2022-09-13T09:36:59;98150.41;;;20.61;46.96
73692;BME280;61996;49.910;35.562;2022-09-13T09:40:08;98151.44;;;20.08;47.91
73692;BME280;61996;49.910;35.562;2022-09-13T09:43:14;98144.75;;;19.74;49.08
73692;BME280;61996;49.910;35.562;2022-09-13T09:46:22;98149.25;;;19.59;49.87
73692;BME280;61996;49.910;35.562;2022-09-13T09:49:30;98150.28;;;19.50;50.15
73692;BME280;61996;49.910;35.562;2022-09-13T09:52:54;98159.38;;;19.40;51.31
73692;BME280;61996;49.910;35.562;2022-09-13T09:56:00;98152.78;;;19.51;50.69
73692;BME280;61996;49.910;35.562;2022-09-13T09:59:04;98156.03;;;19.38;51.51
73692;BME280;61996;49.910;35.562;2022-09-13T10:02:27;98167.91;;;19.59;51.58
73692;BME280;61996;49.910;35.562;2022-09-13T10:05:30;98160.47;;;19.46;52.90
73692;BME280;61996;49.910;35.562;2022-09-13T10:08:34;98156.25;;;19.52;53.00
73692;BME280;61996;49.910;35.562;2022-09-13T10:11:39;98155.97;;;19.47;51.78
73692;BME280;61996;49.910;35.562;2022-09-13T10:14:42;98158.84;;;19.68;52.93
73692;BME280;61996;49.910;35.562;2022-09-13T10:18:02;98165.66;;;19.70;52.59
73692;BME280;61996;49.910;35.562;2022-09-13T10:21:22;98157.88;;;19.61;51.57
73692;BME280;61996;49.910;35.562;2022-09-13T10:24:26;98163.69;;;19.64;51.77
73692;BME280;61996;49.910;35.562;2022-09-13T10:27:31;98160.44;;;19.77;51.83
73692;BME280;61996;49.910;35.562;2022-09-13T10:30:35;98169.84;;;19.65;51.81
73692;BME280;61996;49.910;35.562;2022-09-13T10:33:41;98169.16;;;19.71;52.23
73692;BME280;61996;49.910;35.562;2022-09-13T10:36:47;98163.63;;;19.73;51.50
73692;BME280;61996;49.910;35.562;2022-09-13T10:39:55;98164.09;;;19.76;51.24
73692;BME280;61996;49.910;35.562;2022-09-13T10:43:00;98149.28;;;19.74;50.12
73692;BME280;61996;49.910;35.562;2022-09-13T10:46:13;98153.56;;;19.60;50.74
73692;BME280;61996;49.910;35.562;2022-09-13T10:49:41;98149.34;;;19.65;50.59
73692;BME280;61996;49.910;35.562;2022-09-13T10:52:45;98156.84;;;19.85;49.74
73692;BME280;61996;49.910;35.562;2022-09-13T10:55:51;98143.94;;;19.74;50.23
73692;BME280;61996;49.910;35.562;2022-09-13T11:02:15;98140.22;;;19.83;50.16
73692;BME280;61996;49.910;35.562;2022-09-13T11:05:26;98144.88;;;19.81;50.96
73692;BME280;61996;49.910;35.562;2022-09-13T11:08:36;98141.69;;;20.00;51.10
73692;BME280;61996;49.910;35.562;2022-09-13T11:11:47;98135.16;;;20.03;50.58
73692;BME280;61996;49.910;35.562;2022-09-13T11:14:57;98139.84;;;20.01;50.08
73692;BME280;61996;49.910;35.562;2022-09-13T11:18:15;98147.41;;;20.12;50.74
73692;BME280;61996;49.910;35.562;2022-09-13T11:21:25;98146.94;;;20.08;49.67
73692;BME280;61996;49.910;35.562;2022-09-13T11:24:42;98151.22;;;20.17;50.70
73692;BME280;61996;49.910;35.562;2022-09-13T11:27:50;98152.66;;;20.05;50.30
73692;BME280;61996;49.910;35.562;2022-09-13T11:31:00;98148.44;;;20.11;50.60
73692;BME280;61996;49.910;35.562;2022-09-13T11:34:12;98153.50;;;20.20;50.10
73692;BME280;61996;49.910;35.562;2022-09-13T11:37:23;98152.03;;;20.18;49.98
73692;BME280;61996;49.910;35.562;2022-09-13T11:40:33;98165.19;;;20.05;49.92
73692;BME280;61996;49.910;35.562;2022-09-13T11:43:47;98165.06;;;19.98;50.57
73692;BME280;61996;49.910;35.562;2022-09-13T11:46:54;98159.97;;;19.88;50.48
73692;BME280;61996;49.910;35.562;2022-09-13T11:50:02;98171.53;;;20.04;50.38
73692;BME280;61996;49.910;35.562;2022-09-13T11:53:17;98164.50;;;20.03;50.17
73692;BME280;61996;49.910;35.562;2022-09-13T11:56:30;98167.16;;;20.03;49.78
73692;BME280;61996;49.910;35.562;2022-09-13T11:59:36;98160.84;;;20.04;50.48
73692;BME280;61996;49.910;35.562;2022-09-13T12:02:41;98164.16;;;20.06;49.79
73692;BME280;61996;49.910;35.562;2022-09-13T12:05:46;98171.25;;;20.13;49.99
73692;BME280;61996;49.910;35.562;2022-09-13T12:08:53;98173.31;;;19.88;50.36
73692;BME280;61996;49.910;35.562;2022-09-13T12:11:59;98172.50;;;19.88;50.68
73692;BME280;61996;49.910;35.562;2022-09-13T12:15:05;98169.78;;;19.96;50.62
73692;BME280;61996;49.910;35.562;2022-09-13T12:18:10;98169.81;;;19.88;49.92
73692;BME280;61996;49.910;35.562;2022-09-13T12:21:15;98168.47;;;19.92;50.28
73692;BME280;61996;49.910;35.562;2022-09-13T12:24:23;98166.91;;;19.97;50.38
73692;BME280;61996;49.910;35.562;2022-09-13T12:27:30;98167.16;;;19.88;50.75
73692;BME280;61996;49.910;35.562;2022-09-13T12:30:41;98167.88;;;19.82;49.91
73692;BME280;61996;49.910;35.562;2022-09-13T12:33:46;98169.50;;;19.68;50.12
73692;BME280;61996;49.910;35.562;2022-09-13T12:36:55;98169.97;;;19.49;51.01
73692;BME280;61996;49.910;35.562;2022-09-13T12:40:07;98172.91;;;17.48;53.99
73692;BME280;61996;49.910;35.562;2022-09-13T12:46:55;98173.88;;;18.12;55.84
73692;BME280;61996;49.910;35.562;2022-09-13T12:50:19;98169.41;;;19.53;51.20
73692;BME280;61996;49.910;35.562;2022-09-13T12:53:54;98173.00;;;19.68;50.33
73692;BME280;61996;49.910;35.562;2022-09-13T12:57:03;98183.78;;;19.75;50.36
73692;BME280;61996;49.910;35.562;2022-09-13T13:00:16;98176.56;;;19.53;50.59
73692;BME280;61996;49.910;35.562;2022-09-13T13:03:20;98183.41;;;19.78;50.51
73692;BME280;61996;49.910;35.562;2022-09-13T13:06:27;98180.28;;;19.75;50.25
73692;BME280;61996;49.910;35.562;2022-09-13T13:09:32;98175.56;;;19.62;50.21
73692;BME280;61996;49.910;35.562;2022-09-13T13:12:42;98180.22;;;19.83;49.77
73692;BME280;61996;49.910;35.562;2022-09-13T13:15:56;98188.38;;;19.81;51.03
73692;BME280;61996;49.910;35.562;2022-09-13T13:19:00;98190.53;;;19.86;50.46
73692;BME280;61996;49.910;35.562;2022-09-13T13:25:30;98187.78;;;19.94;51.06
73692;BME280;61996;49.910;35.562;2022-09-13T13:32:07;98192.13;;;19.72;50.06
73692;BME280;61996;49.910;35.562;2022-09-13T13:35:24;98194.75;;;19.95;49.74
73692;BME280;61996;49.910;35.562;2022-09-13T13:38:37;98185.91;;;19.80;50.01
73692;BME280;61996;49.910;35.562;2022-09-13T13:41:48;98192.78;;;19.74;50.16
73692;BME280;61996;49.910;35.562;2022-09-13T13:48:22;98197.97;;;19.76;50.36
73692;BME280;61996;49.910;35.562;2022-09-13T13:51:35;98195.28;;;19.76;49.71
73692;BME280;61996;49.910;35.562;2022-09-13T13:57:57;98195.72;;;19.56;50.62
73692;BME280;61996;49.910;35.562;2022-09-13T14:01:01;98193.84;;;19.42;51.29
73692;BME280;61996;49.910;35.562;2022-09-13T14:04:28;98204.28;;;19.75;50.84
73692;BME280;61996;49.910;35.562;2022-09-13T14:07:45;98203.69;;;19.64;50.45
73692;BME280;61996;49.910;35.562;2022-09-13T14:10:57;98203.94;;;19.47;51.53
73692;BME280;61996;49.910;35.562;2022-09-13T14:14:07;98209.41;;;19.53;51.04
73692;BME280;61996;49.910;35.562;2022-09-13T14:20:35;98212.91;;;19.62;50.67
73692;BME280;61996;49.910;35.562;2022-09-13T14:23:38;98210.22;;;19.54;51.01
73692;BME280;61996;49.910;35.562;2022-09-13T14:26:41;98213.16;;;19.67;49.99
73692;BME280;61996;49.910;35.562;2022-09-13T14:29:45;98213.06;;;19.60;50.07
73692;BME280;61996;49.910;35.562;2022-09-13T14:32:48;98215.56;;;19.54;50.63
73692;BME280;61996;49.910;35.562;2022-09-13T14:36:00;98225.59;;;19.52;50.97
73692;BME280;61996;49.910;35.562;2022-09-13T14:39:04;98213.63;;;19.48;51.27
73692;BME280;61996;49.910;35.562;2022-09-13T14:42:11;98226.97;;;19.48;52.09
73692;BME280;61996;49.910;35.562;2022-09-13T14:45:15;98223.50;;;19.39;51.98
73692;BME280;61996;49.910;35.562;2022-09-13T14:48:19;98222.97;;;19.43;52.72
73692;BME280;61996;49.910;35.562;2022-09-13T14:51:25;98224.44;;;19.46;52.96
73692;BME280;61996;49.910;35.562;2022-09-13T14:54:30;98227.44;;;19.51;52.48
73692;BME280;61996;49.910;35.562;2022-09-13T14:57:36;98229.25;;;19.51;51.80
73692;BME280;61996;49.910;35.562;2022-09-13T15:00:44;98230.78;;;19.45;52.14
73692;BME280;61996;49.910;35.562;2022-09-13T15:03:50;98223.72;;;19.60;51.89
73692;BME280;61996;49.910;35.562;2022-09-13T15:07:08;98224.41;;;19.54;52.14
73692;BME280;61996;49.910;35.562;2022-09-13T15:10:19;98221.25;;;19.28;52.48
73692;BME280;61996;49.910;35.562;2022-09-13T15:13:22;98230.03;;;19.36;51.94
73692;BME280;61996;49.910;35.562;2022-09-13T15:16:25;98229.78;;;19.46;51.80
73692;BME280;61996;49.910;35.562;2022-09-13T15:19:34;98229.78;;;19.46;51.31
73692;BME280;61996;49.910;35.562;2022-09-13T15:22:40;98227.94;;;19.47;51.55
73692;BME280;61996;49.910;35.562;2022-09-13T15:25:47;98235.69;;;19.64;51.50
73692;BME280;61996;49.910;35.562;2022-09-13T15:28:52;98235.03;;;19.31;51.86
73692;BME280;61996;49.910;35.562;2022-09-13T15:31:57;98233.13;;;19.48;51.70
73692;BME280;61996;49.910;35.562;2022-09-13T15:35:00;98235.16;;;19.38;52.00
73692;BME280;61996;49.910;35.562;2022-09-13T15:38:15;98241.06;;;19.25;51.37
73692;BME280;61996;49.910;35.562;2022-09-13T15:41:18;98236.50;;;19.42;51.27
73692;BME280;61996;49.910;35.562;2022-09-13T15:44:22;98239.84;;;19.36;51.23
73692;BME280;61996;49.910;35.562;2022-09-13T15:47:25;98247.09;;;19.19;51.36
73692;BME280;61996;49.910;35.562;2022-09-13T15:50:28;98249.66;;;19.12;51.21
73692;BME280;61996;49.910;35.562;2022-09-13T15:53:33;98252.66;;;19.09;51.48
73692;BME280;61996;49.910;35.562;2022-09-13T15:56:36;98258.84;;;19.33;50.99
73692;BME280;61996;49.910;35.562;2022-09-13T15:59:41;98264.88;;;18.96;52.23
73692;BME280;61996;49.910;35.562;2022-09-13T16:02:45;98263.69;;;18.98;51.88
73692;BME280;61996;49.910;35.562;2022-09-13T16:05:48;98268.84;;;19.00;52.22
73692;BME280;61996;49.910;35.562;2022-09-13T16:08:52;98266.69;;;18.95;52.24
73692;BME280;61996;49.910;35.562;2022-09-13T16:11:55;98279.41;;;18.77;52.46
73692;BME280;61996;49.910;35.562;2022-09-13T16:14:58;98273.53;;;18.89;52.25
73692;BME280;61996;49.910;35.562;2022-09-13T16:18:01;98273.56;;;18.81;52.32
73692;BME280;61996;49.910;35.562;2022-09-13T16:21:04;98283.88;;;18.84;52.21
73692;BME280;61996;49.910;35.562;2022-09-13T16:24:08;98277.06;;;18.82;52.04
73692;BME280;61996;49.910;35.562;2022-09-13T16:27:11;98290.19;;;18.92;52.35
73692;BME280;61996;49.910;35.562;2022-09-13T16:30:16;98290.72;;;18.87;52.10
73692;BME280;61996;49.910;35.562;2022-09-13T16:33:22;98287.84;;;18.97;52.52
73692;BME280;61996;49.910;35.562;2022-09-13T16:36:25;98276.63;;;19.09;53.67
73692;BME280;61996;49.910;35.562;2022-09-13T16:39:31;98283.34;;;18.97;53.75
73692;BME280;61996;49.910;35.562;2022-09-13T16:42:35;98290.59;;;19.20;52.87